Time;durP1;ratioP1;P1;durP2;ratioP2;P2;SDS_P1;SDS_P2;PMS_P1;PMS_P2;Temp;Humidity;BMP_temperature;BMP_pressure;BME280_temperature;BME280_humidity;BME280_pressure;Samples;Min_cycle;Max_cycle;Signal;HPM_P1;HPM_P2
2023/07/27 00:05:07;;;;;;;11.30;5.82;;;12.30;99.90;;;;;;5074502;28;20112;-62
2023/07/27 00:07:33;;;;;;;10.75;5.90;;;12.30;99.90;;;;;;5096086;28;20035;-61
2023/07/27 00:09:59;;;;;;;9.75;5.35;;;12.40;99.90;;;;;;5074088;28;20052;-62
2023/07/27 00:12:25;;;;;;;10.68;6.05;;;12.30;99.90;;;;;;5076006;28;20545;-63
2023/07/27 00:14:51;;;;;;;7.93;5.65;;;12.30;99.90;;;;;;5056717;28;20036;-64
2023/07/27 00:17:17;;;;;;;10.80;6.15;;;12.30;99.90;;;;;;5073861;28;20048;-64
2023/07/27 00:19:43;;;;;;;10.80;5.90;;;12.30;99.90;;;;;;5074717;28;20068;-63
2023/07/27 00:22:08;;;;;;;9.70;6.13;;;12.40;99.90;;;;;;5074467;28;20086;-63
2023/07/27 00:24:34;;;;;;;9.65;5.75;;;12.40;99.90;;;;;;5039109;28;20441;-63
2023/07/27 00:27:00;;;;;;;11.40;6.20;;;12.50;99.90;;;;;;5071833;28;20133;-63
2023/07/27 00:29:26;;;;;;;9.73;6.55;;;12.40;99.90;;;;;;5058946;28;20116;-63
2023/07/27 00:31:51;;;;;;;8.60;6.25;;;12.50;99.90;;;;;;5072946;28;20937;-62
2023/07/27 00:34:17;;;;;;;10.00;6.15;;;12.40;99.90;;;;;;5074016;28;20043;-63
2023/07/27 00:36:43;;;;;;;12.77;6.68;;;12.50;99.90;;;;;;5074968;28;20040;-63
2023/07/27 00:39:11;;;;;;;10.70;6.38;;;12.50;99.90;;;;;;5059451;28;20036;-63
2023/07/27 00:41:40;;;;;;;12.65;7.18;;;12.50;99.90;;;;;;5077508;28;20105;-63
2023/07/27 00:47:47;;;;;;;11.00;6.80;;;12.50;99.90;;;;;;5074988;28;20042;-63
2023/07/27 00:50:13;;;;;;;11.50;7.50;;;12.50;99.90;;;;;;5072321;28;20418;-64
2023/07/27 00:52:40;;;;;;;10.80;7.10;;;12.50;99.90;;;;;;5072408;28;20036;-63
2023/07/27 00:55:06;;;;;;;10.65;7.10;;;12.40;99.90;;;;;;5061811;28;20045;-65
2023/07/27 00:57:32;;;;;;;12.05;7.43;;;12.40;99.90;;;;;;5072123;28;20102;-63
2023/07/27 00:59:57;;;;;;;12.98;7.60;;;12.40;99.90;;;;;;5060820;28;20060;-64
2023/07/27 01:02:23;;;;;;;13.90;8.20;;;12.40;99.90;;;;;;5071925;28;20051;-63
2023/07/27 01:04:49;;;;;;;14.43;8.50;;;12.40;99.90;;;;;;5085854;28;21745;-62
2023/07/27 01:07:15;;;;;;;12.70;7.57;;;12.40;99.90;;;;;;5055791;28;20040;-62
2023/07/27 01:09:41;;;;;;;13.70;8.40;;;12.40;99.90;;;;;;5073401;28;20437;-62
2023/07/27 01:12:16;;;;;;;12.38;8.20;;;12.30;99.90;;;;;;5074177;28;20040;-63
2023/07/27 01:15:02;;;;;;;11.25;7.47;;;12.40;99.90;;;;;;5062745;28;20029;-63
2023/07/27 01:17:39;;;;;;;14.10;7.75;;;12.40;99.90;;;;;;5072365;28;20071;-63
2023/07/27 01:20:11;;;;;;;11.10;7.57;;;12.50;99.90;;;;;;5072897;28;20123;-63
2023/07/27 01:23:18;;;;;;;10.77;7.55;;;12.50;99.90;;;;;;5074555;28;20127;-63
2023/07/27 01:26:02;;;;;;;13.38;7.72;;;12.50;99.90;;;;;;5072120;28;20553;-63
2023/07/27 01:28:52;;;;;;;13.65;7.70;;;12.50;99.90;;;;;;5074900;28;20093;-62
2023/07/27 01:31:23;;;;;;;14.40;7.55;;;12.50;99.90;;;;;;5069556;28;20062;-62
2023/07/27 01:34:22;;;;;;;13.38;8.07;;;12.60;99.90;;;;;;5070998;28;20068;-62
2023/07/27 01:36:52;;;;;;;13.20;7.53;;;12.60;99.90;;;;;;5073523;28;20084;-64
2023/07/27 01:39:19;;;;;;;11.50;7.45;;;12.60;99.90;;;;;;5075660;28;20044;-63
2023/07/27 01:41:46;;;;;;;13.98;8.07;;;12.60;99.90;;;;;;5072527;28;20576;-63
2023/07/27 01:44:13;;;;;;;14.52;8.05;;;12.60;99.90;;;;;;5074991;28;20431;-63
2023/07/27 01:46:40;;;;;;;13.20;7.97;;;12.60;99.90;;;;;;5071849;28;20047;-63
2023/07/27 01:49:07;;;;;;;16.58;7.63;;;12.50;99.90;;;;;;5070823;28;20047;-63
2023/07/27 01:51:35;;;;;;;11.85;7.13;;;12.50;99.90;;;;;;5073126;28;20037;-63
2023/07/27 01:54:02;;;;;;;14.60;7.15;;;12.50;99.90;;;;;;5059702;28;20449;-63
2023/07/27 01:56:29;;;;;;;11.98;7.32;;;12.60;99.90;;;;;;5071595;28;20123;-63
2023/07/27 01:58:56;;;;;;;10.32;7.18;;;12.60;99.90;;;;;;5074668;28;20452;-63
2023/07/27 02:01:21;;;;;;;11.38;6.75;;;12.50;99.90;;;;;;5071734;28;20123;-63
2023/07/27 02:03:48;;;;;;;12.25;6.88;;;12.50;99.90;;;;;;5067729;28;20546;-61
2023/07/27 02:06:14;;;;;;;11.13;7.15;;;12.50;99.90;;;;;;5052059;28;20046;-63
2023/07/27 02:12:26;;;;;;;12.23;7.85;;;12.50;99.90;;;;;;5072158;28;20070;-64
2023/07/27 02:15:05;;;;;;;11.85;7.40;;;12.60;99.90;;;;;;5071428;28;20040;-62
2023/07/27 02:17:39;;;;;;;16.00;7.45;;;12.50;99.90;;;;;;5090458;28;20040;-63
2023/07/27 02:20:13;;;;;;;11.60;7.22;;;12.50;99.90;;;;;;5071730;28;21026;-63
2023/07/27 02:22:41;;;;;;;13.60;6.85;;;12.50;99.90;;;;;;5070160;28;20431;-64
2023/07/27 02:25:08;;;;;;;9.82;6.85;;;12.50;99.90;;;;;;5053988;28;20041;-65
2023/07/27 02:27:34;;;;;;;12.57;7.32;;;12.60;99.90;;;;;;5071870;28;20327;-63
2023/07/27 02:30:01;;;;;;;11.52;7.03;;;12.50;99.90;;;;;;5070740;28;20068;-64
2023/07/27 02:32:26;;;;;;;14.05;7.00;;;12.50;99.90;;;;;;5084101;28;20094;-63
2023/07/27 02:34:52;;;;;;;11.07;6.60;;;12.60;99.90;;;;;;5070680;28;21329;-63
2023/07/27 02:37:18;;;;;;;12.15;6.85;;;12.60;99.90;;;;;;5074467;28;20040;-64
2023/07/27 02:39:43;;;;;;;10.65;6.97;;;12.60;99.90;;;;;;5070792;28;20112;-64
2023/07/27 02:42:09;;;;;;;10.55;6.55;;;12.60;99.90;;;;;;5071104;28;20044;-64
2023/07/27 02:44:34;;;;;;;9.77;6.13;;;12.60;99.90;;;;;;5061945;28;20048;-63
2023/07/27 02:47:00;;;;;;;10.20;6.50;;;12.60;99.90;;;;;;5072314;28;20036;-64
2023/07/27 02:49:26;;;;;;;10.77;6.60;;;12.70;99.90;;;;;;5071514;28;20036;-63
2023/07/27 02:51:51;;;;;;;11.18;7.13;;;12.70;99.90;;;;;;5056871;28;20043;-64
2023/07/27 02:54:17;;;;;;;12.30;7.38;;;12.80;99.90;;;;;;5070910;28;20036;-63
2023/07/27 02:56:43;;;;;;;10.00;7.20;;;12.80;99.90;;;;;;5070894;28;20056;-63
2023/07/27 02:59:08;;;;;;;12.05;7.40;;;12.80;99.90;;;;;;5069692;28;20048;-63
2023/07/27 03:01:34;;;;;;;13.70;7.18;;;12.80;99.90;;;;;;5054879;28;20055;-62
2023/07/27 03:07:41;;;;;;;11.02;6.85;;;12.90;99.90;;;;;;5070498;28;20053;-63
2023/07/27 03:10:07;;;;;;;10.20;6.93;;;12.90;99.90;;;;;;5056445;28;20041;-62
2023/07/27 03:12:32;;;;;;;11.88;7.32;;;12.90;99.90;;;;;;5060687;28;20102;-63
2023/07/27 03:14:58;;;;;;;10.93;6.90;;;12.90;99.90;;;;;;5069204;28;20075;-62
2023/07/27 03:17:24;;;;;;;12.52;6.45;;;12.90;99.90;;;;;;5071784;28;20140;-63
2023/07/27 03:19:49;;;;;;;11.40;7.40;;;12.90;99.90;;;;;;5068952;28;20047;-61
2023/07/27 03:22:15;;;;;;;11.73;7.70;;;12.90;99.90;;;;;;5070915;28;20205;-62
2023/07/27 03:24:41;;;;;;;11.52;6.82;;;12.90;99.90;;;;;;5069693;28;20045;-62
2023/07/27 03:27:06;;;;;;;10.07;7.00;;;12.90;99.90;;;;;;5053701;28;20510;-63
2023/07/27 03:29:32;;;;;;;9.25;6.93;;;13.00;99.90;;;;;;5069748;28;20045;-63
2023/07/27 03:31:57;;;;;;;11.00;7.18;;;12.90;99.90;;;;;;5069744;28;20101;-63
2023/07/27 03:34:24;;;;;;;10.75;7.63;;;12.90;99.90;;;;;;5066664;28;20056;-61
2023/07/27 03:40:31;;;;;;;9.10;6.90;;;13.00;99.90;;;;;;5070055;28;20540;-63
2023/07/27 03:42:56;;;;;;;10.05;6.88;;;13.00;99.90;;;;;;5058393;28;20040;-63
2023/07/27 03:49:04;;;;;;;12.07;7.20;;;13.00;99.90;;;;;;5070880;28;20020;-63
2023/07/27 03:51:30;;;;;;;10.38;7.60;;;13.10;99.90;;;;;;5090429;28;20096;-62
2023/07/27 03:53:56;;;;;;;11.25;7.20;;;13.10;99.90;;;;;;5055857;28;20425;-64
2023/07/27 03:56:21;;;;;;;11.15;7.45;;;13.20;99.90;;;;;;5068704;28;21212;-63
2023/07/27 03:58:47;;;;;;;11.55;7.00;;;13.10;99.90;;;;;;5049755;28;20098;-63
2023/07/27 04:01:13;;;;;;;12.75;6.90;;;13.10;99.90;;;;;;5070117;28;20402;-63
2023/07/27 04:03:38;;;;;;;11.80;7.22;;;13.20;99.90;;;;;;5053682;28;20174;-62
2023/07/27 04:06:04;;;;;;;9.57;7.20;;;13.20;99.90;;;;;;5071797;28;20483;-65
2023/07/27 04:08:30;;;;;;;11.32;6.85;;;13.20;99.90;;;;;;5069340;28;20040;-62
2023/07/27 04:10:55;;;;;;;12.05;7.30;;;13.20;99.90;;;;;;5070289;28;20040;-63
2023/07/27 04:13:21;;;;;;;9.30;6.97;;;13.20;99.90;;;;;;5053492;28;20043;-64
2023/07/27 04:15:46;;;;;;;10.93;6.57;;;13.20;99.90;;;;;;5052946;28;20052;-62
2023/07/27 04:18:12;;;;;;;10.48;7.47;;;13.20;99.90;;;;;;5057775;28;20123;-65
2023/07/27 04:20:38;;;;;;;10.85;7.18;;;13.30;99.90;;;;;;5071484;28;20115;-63
2023/07/27 04:23:04;;;;;;;10.65;7.35;;;13.30;99.90;;;;;;5070809;28;20053;-63
2023/07/27 04:25:29;;;;;;;10.88;7.20;;;13.40;99.90;;;;;;5068689;28;20048;-63
2023/07/27 04:27:55;;;;;;;10.98;6.93;;;13.50;99.90;;;;;;5069614;28;20101;-63
2023/07/27 04:30:21;;;;;;;9.70;6.85;;;13.50;99.90;;;;;;5075231;28;20040;-64
2023/07/27 04:32:47;;;;;;;9.88;6.72;;;13.60;99.90;;;;;;5075990;28;20050;-63
2023/07/27 04:35:13;;;;;;;9.15;6.40;;;13.60;99.90;;;;;;5071514;28;20395;-63
2023/07/27 04:37:38;;;;;;;9.57;6.65;;;13.60;99.90;;;;;;5074069;28;20115;-63
2023/07/27 04:40:05;;;;;;;9.77;7.28;;;13.60;99.90;;;;;;5072459;28;20048;-62
2023/07/27 04:42:30;;;;;;;11.38;7.00;;;13.70;99.90;;;;;;5073337;28;20044;-62
2023/07/27 04:44:56;;;;;;;10.57;6.53;;;13.80;99.90;;;;;;5073399;28;20052;-62
2023/07/27 04:47:22;;;;;;;9.27;6.50;;;13.70;99.90;;;;;;5074110;28;20112;-63
2023/07/27 04:49:48;;;;;;;8.88;6.88;;;13.80;99.90;;;;;;5073159;28;20101;-62
2023/07/27 04:52:13;;;;;;;11.55;7.20;;;13.70;99.90;;;;;;5074928;28;20033;-64
2023/07/27 04:54:39;;;;;;;8.60;6.93;;;13.70;99.90;;;;;;5072730;28;20028;-63
2023/07/27 04:57:05;;;;;;;12.57;7.00;;;13.80;99.90;;;;;;5074227;28;20132;-63
2023/07/27 04:59:30;;;;;;;10.07;6.82;;;13.70;99.90;;;;;;5076045;28;20048;-63
2023/07/27 05:01:56;;;;;;;8.38;6.93;;;13.80;99.90;;;;;;5072425;28;20418;-63
2023/07/27 05:04:22;;;;;;;12.05;7.40;;;13.80;99.90;;;;;;5057168;28;20047;-65
2023/07/27 05:06:47;;;;;;;9.20;7.07;;;13.90;99.90;;;;;;5072976;28;20107;-64
2023/07/27 05:09:14;;;;;;;11.10;7.38;;;13.90;99.90;;;;;;5073183;28;20040;-61
2023/07/27 05:11:39;;;;;;;12.20;7.30;;;13.90;99.90;;;;;;5059053;28;20035;-63
2023/07/27 05:14:05;;;;;;;11.70;7.88;;;13.90;99.90;;;;;;5072606;28;20040;-61
2023/07/27 05:16:31;;;;;;;12.70;7.97;;;13.90;99.90;;;;;;5072989;28;20592;-62
2023/07/27 05:18:57;;;;;;;9.82;7.82;;;13.90;99.90;;;;;;5073664;28;20037;-63
2023/07/27 05:21:23;;;;;;;14.07;8.57;;;13.80;99.90;;;;;;5057261;28;20052;-63
2023/07/27 05:23:49;;;;;;;11.85;7.75;;;13.80;99.90;;;;;;5090964;28;20127;-64
2023/07/27 05:26:15;;;;;;;11.93;8.60;;;13.80;99.90;;;;;;5057030;28;20101;-64
2023/07/27 05:28:40;;;;;;;12.40;8.40;;;13.90;99.90;;;;;;5052903;28;20094;-64
2023/07/27 05:31:07;;;;;;;11.32;8.02;;;13.90;99.90;;;;;;5070317;28;20045;-62
2023/07/27 05:33:33;;;;;;;11.65;8.52;;;13.90;99.90;;;;;;5071303;28;20072;-62
2023/07/27 05:35:59;;;;;;;12.32;8.75;;;14.00;99.90;;;;;;5072589;28;20453;-63
2023/07/27 05:38:24;;;;;;;13.90;8.63;;;14.00;99.90;;;;;;5058126;28;20048;-64
2023/07/27 05:40:50;;;;;;;13.43;8.55;;;14.10;99.90;;;;;;5071302;28;20541;-63
2023/07/27 05:43:16;;;;;;;15.23;8.80;;;14.10;99.90;;;;;;5070569;28;20076;-63
2023/07/27 05:45:41;;;;;;;14.27;9.20;;;14.10;99.90;;;;;;5072460;28;20055;-63
2023/07/27 05:48:07;;;;;;;14.07;8.52;;;14.10;99.90;;;;;;5055370;28;20274;-63
2023/07/27 05:50:34;;;;;;;10.85;8.13;;;14.10;99.90;;;;;;5069984;28;20462;-63
2023/07/27 05:53:10;;;;;;;11.50;8.80;;;14.10;99.90;;;;;;5075920;28;20041;-63
2023/07/27 05:55:36;;;;;;;13.63;8.93;;;14.00;99.90;;;;;;5072218;28;20098;-65
2023/07/27 05:58:02;;;;;;;13.13;8.38;;;14.10;99.90;;;;;;5072041;28;20040;-63
2023/07/27 06:04:09;;;;;;;14.68;8.60;;;14.10;99.90;;;;;;5073704;28;20024;-64
2023/07/27 06:06:35;;;;;;;15.23;8.70;;;14.00;99.90;;;;;;5053907;28;20410;-64
2023/07/27 06:09:02;;;;;;;15.15;8.93;;;13.80;99.90;;;;;;5055401;28;20048;-65
2023/07/27 06:11:28;;;;;;;13.40;8.93;;;14.00;99.90;;;;;;5072778;28;20055;-62
2023/07/27 06:13:54;;;;;;;14.07;8.75;;;14.00;99.90;;;;;;5072758;28;20115;-63
2023/07/27 06:16:20;;;;;;;13.32;8.77;;;14.00;99.90;;;;;;5072023;28;20055;-63
2023/07/27 06:18:46;;;;;;;15.05;9.77;;;13.90;99.90;;;;;;5071785;28;20047;-63
2023/07/27 06:21:12;;;;;;;12.60;9.55;;;13.90;99.90;;;;;;5071900;28;20044;-63
2023/07/27 06:23:37;;;;;;;13.60;9.60;;;13.90;99.90;;;;;;5071574;28;20376;-64
2023/07/27 06:29:44;;;;;;;14.52;9.88;;;13.70;99.90;;;;;;5072251;28;20482;-64
2023/07/27 06:35:51;;;;;;;13.98;9.38;;;13.80;99.90;;;;;;5071898;28;20035;-63
2023/07/27 06:38:17;;;;;;;11.98;9.48;;;13.80;99.90;;;;;;5071298;28;20390;-64
2023/07/27 06:40:43;;;;;;;14.05;10.25;;;13.70;99.90;;;;;;5069809;28;20052;-63
2023/07/27 06:43:08;;;;;;;13.73;9.75;;;13.80;99.90;;;;;;5057856;28;20040;-64
2023/07/27 06:45:34;;;;;;;14.77;9.80;;;14.00;99.90;;;;;;5070540;28;20048;-62
2023/07/27 06:48:00;;;;;;;14.35;9.02;;;13.90;99.90;;;;;;5070875;28;20044;-64
2023/07/27 06:50:26;;;;;;;13.18;9.68;;;14.00;99.90;;;;;;5071531;28;20490;-63
2023/07/27 06:52:51;;;;;;;10.68;8.07;;;14.20;99.90;;;;;;5070899;28;20048;-64
2023/07/27 06:55:17;;;;;;;11.65;8.70;;;14.30;99.90;;;;;;5071412;28;20043;-64
2023/07/27 06:57:43;;;;;;;13.35;9.27;;;14.60;99.90;;;;;;5071817;28;20055;-62
2023/07/27 07:00:09;;;;;;;10.98;8.25;;;14.50;99.90;;;;;;5071020;28;20052;-65
2023/07/27 07:02:35;;;;;;;13.18;8.77;;;14.70;99.90;;;;;;5075911;28;20072;-62
2023/07/27 07:05:00;;;;;;;9.50;7.75;;;14.80;99.90;;;;;;5071261;28;20117;-64
2023/07/27 07:07:26;;;;;;;10.23;6.88;;;14.70;99.90;;;;;;5070825;28;20039;-63
2023/07/27 07:09:52;;;;;;;8.60;6.25;;;15.00;99.90;;;;;;5070648;28;20072;-63
2023/07/27 07:12:18;;;;;;;8.75;6.15;;;14.80;99.90;;;;;;5054667;28;20460;-63
2023/07/27 07:14:44;;;;;;;8.57;6.47;;;15.10;99.90;;;;;;5071076;28;20371;-63
2023/07/27 07:17:09;;;;;;;8.82;6.07;;;15.00;99.90;;;;;;5072034;28;20107;-63
2023/07/27 07:19:35;;;;;;;7.95;6.88;;;15.10;99.90;;;;;;5054093;28;20132;-62
2023/07/27 07:22:01;;;;;;;8.93;6.25;;;15.40;99.90;;;;;;5068977;28;20049;-63
2023/07/27 07:31:49;;;;;;;8.68;5.82;;;15.80;99.90;;;;;;5070990;28;20056;-64
2023/07/27 07:34:14;;;;;;;7.53;6.38;;;16.00;99.90;;;;;;5076946;28;20032;-64
2023/07/27 07:36:40;;;;;;;7.28;5.93;;;16.00;99.90;;;;;;5074259;28;20089;-64
2023/07/27 07:39:26;;;;;;;9.18;6.65;;;15.80;99.90;;;;;;5054036;28;20529;-61
2023/07/27 07:42:11;;;;;;;7.65;6.22;;;15.80;99.90;;;;;;5070488;28;20040;-63
2023/07/27 07:44:37;;;;;;;10.65;7.07;;;16.00;99.90;;;;;;5071834;28;20059;-63
2023/07/27 07:47:03;;;;;;;8.77;7.10;;;15.90;99.90;;;;;;5072676;28;20071;-64
2023/07/27 07:49:28;;;;;;;9.07;6.65;;;15.90;99.90;;;;;;5050653;28;20044;-64
2023/07/27 07:51:54;;;;;;;10.43;6.85;;;16.00;99.90;;;;;;5053043;28;20044;-64
2023/07/27 07:54:20;;;;;;;9.15;6.78;;;16.00;99.90;;;;;;5068132;28;20079;-63
2023/07/27 07:56:47;;;;;;;9.30;6.78;;;16.00;99.90;;;;;;5051666;28;20048;-63
2023/07/27 07:59:14;;;;;;;7.53;6.20;;;16.00;99.90;;;;;;5087281;28;20123;-63
2023/07/27 08:01:40;;;;;;;9.70;6.30;;;16.00;99.90;;;;;;5070463;28;20035;-65
2023/07/27 08:04:07;;;;;;;6.25;5.65;;;16.10;99.90;;;;;;5090531;28;20428;-63
2023/07/27 08:06:33;;;;;;;7.40;5.47;;;16.00;99.90;;;;;;5082834;28;20047;-64
2023/07/27 08:08:59;;;;;;;7.40;5.72;;;16.20;99.90;;;;;;5074600;28;20045;-63
2023/07/27 08:11:25;;;;;;;6.18;5.57;;;16.30;99.90;;;;;;5062813;28;20120;-64
2023/07/27 08:13:52;;;;;;;7.30;5.03;;;16.40;99.90;;;;;;5074869;28;20123;-63
2023/07/27 08:16:17;;;;;;;6.32;5.32;;;16.40;99.90;;;;;;5074043;28;20047;-64
2023/07/27 08:18:44;;;;;;;6.65;4.90;;;16.10;99.90;;;;;;5073841;28;20032;-63
2023/07/27 08:21:10;;;;;;;7.55;5.13;;;16.10;99.90;;;;;;5055529;28;20044;-64
2023/07/27 08:23:35;;;;;;;5.93;5.00;;;16.10;99.90;;;;;;5073512;28;20043;-63
2023/07/27 08:26:06;;;;;;;6.20;5.40;;;16.20;99.90;;;;;;5071854;28;20386;-64
2023/07/27 08:28:31;;;;;;;6.53;5.55;;;16.10;99.90;;;;;;5073586;28;20123;-64
2023/07/27 08:30:57;;;;;;;6.40;4.78;;;16.10;99.90;;;;;;5072291;28;20184;-63
2023/07/27 08:33:23;;;;;;;6.28;4.70;;;16.10;99.90;;;;;;5072885;28;20043;-64
2023/07/27 08:35:48;;;;;;;6.20;4.80;;;16.20;99.90;;;;;;5070956;28;20044;-63
2023/07/27 08:38:14;;;;;;;6.07;4.78;;;16.10;99.90;;;;;;5071493;28;20127;-65
2023/07/27 08:40:40;;;;;;;7.00;5.03;;;16.10;99.90;;;;;;5071809;28;20062;-63
2023/07/27 08:43:07;;;;;;;6.57;4.65;;;16.10;99.90;;;;;;5073076;28;20624;-63
2023/07/27 08:45:35;;;;;;;5.90;4.40;;;16.30;99.90;;;;;;5076144;28;20413;-64
2023/07/27 08:48:03;;;;;;;5.82;4.50;;;16.30;99.90;;;;;;5086071;28;20106;-64
2023/07/27 08:50:29;;;;;;;4.57;3.97;;;16.20;99.90;;;;;;5077222;28;20051;-64
2023/07/27 08:52:55;;;;;;;4.68;3.75;;;16.20;99.90;;;;;;5086987;28;20044;-64
2023/07/27 08:55:21;;;;;;;5.20;3.42;;;16.10;99.90;;;;;;5075834;28;20032;-63
2023/07/27 08:57:47;;;;;;;4.47;3.33;;;16.00;99.90;;;;;;5055412;28;20139;-64
2023/07/27 09:00:13;;;;;;;3.22;2.88;;;16.10;99.90;;;;;;5070682;28;20051;-62
2023/07/27 09:02:38;;;;;;;3.17;2.65;;;16.00;99.90;;;;;;5072003;28;20049;-63
2023/07/27 09:05:09;;;;;;;3.47;2.75;;;16.00;99.90;;;;;;5072389;28;20051;-63
2023/07/27 09:07:35;;;;;;;3.05;2.30;;;16.00;99.90;;;;;;5073566;28;20032;-64
2023/07/27 09:10:09;;;;;;;2.55;2.08;;;16.10;99.90;;;;;;5070942;28;20569;-62
2023/07/27 09:12:35;;;;;;;3.38;2.80;;;16.00;99.90;;;;;;5056398;28;20036;-64
2023/07/27 09:15:11;;;;;;;3.40;2.47;;;16.20;99.90;;;;;;5072870;28;20040;-64
2023/07/27 09:17:38;;;;;;;3.17;2.63;;;16.20;99.90;;;;;;5070766;28;20037;-63
2023/07/27 09:20:10;;;;;;;2.53;2.33;;;16.30;99.90;;;;;;5054363;28;20052;-63
2023/07/27 09:26:24;;;;;;;3.42;2.38;;;16.20;99.90;;;;;;5072007;28;20438;-64
2023/07/27 09:29:28;;;;;;;3.38;2.70;;;16.20;99.90;;;;;;5090175;28;20111;-64
2023/07/27 09:31:58;;;;;;;4.15;2.97;;;16.40;99.90;;;;;;5085469;28;20538;-63
2023/07/27 09:34:28;;;;;;;2.72;2.42;;;16.40;99.90;;;;;;5084509;28;20044;-62
2023/07/27 09:37:04;;;;;;;3.17;2.88;;;16.40;99.90;;;;;;5073222;28;20052;-63
2023/07/27 09:39:33;;;;;;;3.40;2.78;;;16.30;99.90;;;;;;5090056;28;20039;-63
2023/07/27 09:41:59;;;;;;;5.35;3.45;;;16.40;99.90;;;;;;5097492;27;20455;-64
2023/07/27 09:44:24;;;;;;;3.50;3.17;;;16.30;99.90;;;;;;5072131;28;20132;-63
2023/07/27 09:46:50;;;;;;;4.00;3.70;;;16.20;99.90;;;;;;5071409;28;20465;-63
2023/07/27 09:49:17;;;;;;;3.65;3.42;;;16.20;99.90;;;;;;5072392;28;20048;-62
2023/07/27 09:51:44;;;;;;;3.78;3.45;;;16.40;99.90;;;;;;5054275;28;20041;-62
2023/07/27 09:54:12;;;;;;;3.50;3.20;;;16.40;99.90;;;;;;5054207;28;20441;-63
2023/07/27 09:56:38;;;;;;;4.05;2.92;;;16.40;99.90;;;;;;5069886;28;20056;-63
2023/07/27 09:59:05;;;;;;;3.53;3.22;;;16.30;99.90;;;;;;5087446;28;20128;-62
2023/07/27 10:01:32;;;;;;;3.75;3.35;;;16.30;99.90;;;;;;5090543;28;20071;-62
2023/07/27 10:03:58;;;;;;;5.43;3.42;;;16.30;99.90;;;;;;5077907;28;20045;-64
2023/07/27 10:06:26;;;;;;;3.38;3.08;;;16.50;99.90;;;;;;5089243;28;20043;-63
2023/07/27 10:08:53;;;;;;;3.60;3.30;;;16.60;99.90;;;;;;5087884;28;20079;-63
2023/07/27 10:11:47;;;;;;;3.80;3.50;;;16.60;99.90;;;;;;5070208;28;20499;-63
2023/07/27 10:14:16;;;;;;;;;;;16.60;99.90;;;;;;5074918;28;20539;-63
2023/07/27 10:17:07;;;;;;;3.88;3.40;;;16.60;99.90;;;;;;5088953;28;20002;-63
2023/07/27 10:19:54;;;;;;;3.75;3.40;;;16.60;99.90;;;;;;5089326;28;20481;-62
2023/07/27 10:22:20;;;;;;;3.70;3.42;;;16.60;99.90;;;;;;5089116;28;20413;-64
2023/07/27 10:24:47;;;;;;;5.10;3.38;;;16.80;99.90;;;;;;5086586;28;20071;-63
2023/07/27 10:27:13;;;;;;;5.13;3.30;;;16.80;99.90;;;;;;5071974;28;20036;-63
2023/07/27 10:29:41;;;;;;;3.58;3.05;;;16.80;99.90;;;;;;5073205;28;20058;-63
2023/07/27 10:32:10;;;;;;;3.03;2.83;;;16.70;99.90;;;;;;5073391;28;20060;-62
2023/07/27 10:34:38;;;;;;;3.85;3.50;;;16.90;99.90;;;;;;5054461;28;20166;-63
2023/07/27 10:37:05;;;;;;;3.58;2.90;;;16.80;99.90;;;;;;5070497;28;20050;-64
2023/07/27 10:39:44;;;;;;;3.78;3.35;;;16.70;99.90;;;;;;5071628;28;20048;-63
2023/07/27 10:42:15;;;;;;;3.88;2.90;;;17.00;99.90;;;;;;5070004;28;20108;-63
2023/07/27 10:44:43;;;;;;;3.20;2.90;;;17.00;99.90;;;;;;5070370;28;20108;-63
2023/07/27 10:47:19;;;;;;;2.65;2.40;;;16.80;99.90;;;;;;5071564;28;20070;-63
2023/07/27 10:49:46;;;;;;;3.45;3.00;;;17.00;99.90;;;;;;5074557;28;20132;-65
2023/07/27 10:52:19;;;;;;;2.95;2.70;;;17.00;99.90;;;;;;5072263;28;20116;-62
2023/07/27 10:54:46;;;;;;;3.38;2.78;;;16.90;99.90;;;;;;5070667;28;20037;-62
2023/07/27 10:57:13;;;;;;;3.83;3.53;;;16.90;99.90;;;;;;5070342;28;20044;-64
2023/07/27 10:59:42;;;;;;;4.03;3.70;;;16.70;99.90;;;;;;5062505;28;20044;-62
2023/07/27 11:02:29;;;;;;;6.82;4.18;;;16.70;99.90;;;;;;5070730;28;20563;-62
2023/07/27 11:04:59;;;;;;;5.40;4.90;;;16.60;99.90;;;;;;5061914;28;20044;-63
2023/07/27 11:07:27;;;;;;;5.38;4.97;;;16.70;99.90;;;;;;5069662;28;20036;-64
2023/07/27 11:09:53;;;;;;;4.82;4.43;;;16.80;99.90;;;;;;5060126;28;20120;-65
2023/07/27 11:12:19;;;;;;;4.07;3.78;;;16.70;99.90;;;;;;5090774;28;20068;-63
2023/07/27 11:14:44;;;;;;;4.78;4.38;;;16.60;99.90;;;;;;5072094;28;20041;-64
2023/07/27 11:17:11;;;;;;;4.95;4.55;;;16.60;99.90;;;;;;5071427;28;20032;-64
2023/07/27 11:19:37;;;;;;;5.82;5.32;;;16.60;99.90;;;;;;5070677;28;20090;-63
2023/07/27 11:22:03;;;;;;;7.20;6.70;;;16.40;99.90;;;;;;5073168;28;20041;-63
2023/07/27 11:24:30;;;;;;;5.95;5.45;;;16.50;99.90;;;;;;5053556;28;20051;-65
2023/07/27 11:26:56;;;;;;;7.28;6.78;;;16.60;99.90;;;;;;5071803;28;20502;-63
2023/07/27 11:29:22;;;;;;;5.80;5.20;;;16.20;99.90;;;;;;5073730;28;20039;-63
2023/07/27 11:32:00;;;;;;;5.60;5.18;;;16.40;99.90;;;;;;5062577;28;20130;-64
2023/07/27 11:37:57;;;;;;;6.00;4.82;;;16.40;99.90;;;;;;5072773;28;20051;-64
2023/07/27 11:40:23;;;;;;;3.72;3.50;;;16.10;99.90;;;;;;5072465;28;20040;-62
2023/07/27 11:42:49;;;;;;;7.53;5.53;;;16.20;99.90;;;;;;5056134;28;20489;-64
2023/07/27 11:45:16;;;;;;;5.30;4.88;;;16.30;99.90;;;;;;5072700;28;20559;-61
2023/07/27 11:47:42;;;;;;;6.03;4.70;;;16.00;99.90;;;;;;5057335;28;20044;-64
2023/07/27 11:53:48;;;;;;;4.82;4.43;;;16.40;99.90;;;;;;5073186;28;20441;-64
2023/07/27 11:56:14;;;;;;;5.70;5.30;;;16.50;99.90;;;;;;5072640;28;20060;-64
2023/07/27 11:58:43;;;;;;;6.18;5.68;;;17.10;99.90;;;;;;5072226;28;20097;-66
2023/07/27 12:04:50;;;;;;;3.80;3.50;;;17.40;99.90;;;;;;5072180;28;20497;-63
2023/07/27 12:07:16;;;;;;;4.32;3.92;;;17.60;99.90;;;;;;5054284;28;20036;-63
2023/07/27 12:09:42;;;;;;;4.13;2.88;;;18.00;99.90;;;;;;5053562;28;20040;-63
2023/07/27 12:12:09;;;;;;;2.88;2.67;;;17.90;99.90;;;;;;5071687;28;20029;-64
2023/07/27 12:14:35;;;;;;;3.40;3.20;;;17.50;99.90;;;;;;5071986;28;20134;-64
2023/07/27 12:17:10;;;;;;;2.60;2.50;;;17.30;99.90;;;;;;5071048;28;20041;-63
2023/07/27 12:19:36;;;;;;;3.00;2.80;;;17.20;99.90;;;;;;5069395;28;20588;-65
2023/07/27 12:22:01;;;;;;;2.47;2.28;;;17.50;99.90;;;;;;5071268;28;20040;-62
2023/07/27 12:24:27;;;;;;;1.70;1.60;;;17.50;99.90;;;;;;5072107;28;20191;-63
2023/07/27 12:26:53;;;;;;;1.02;0.93;;;17.40;99.90;;;;;;5072057;28;20042;-63
2023/07/27 12:29:19;;;;;;;2.15;1.30;;;17.10;99.90;;;;;;5072467;28;20074;-62
2023/07/27 12:31:44;;;;;;;1.13;1.02;;;17.10;99.90;;;;;;5073286;28;20093;-64
2023/07/27 12:34:10;;;;;;;1.20;1.10;;;17.40;99.90;;;;;;5069561;28;20040;-63
2023/07/27 12:36:36;;;;;;;1.52;1.42;;;17.20;99.90;;;;;;5071450;28;20040;-65
2023/07/27 12:39:02;;;;;;;2.40;2.28;;;17.10;99.90;;;;;;5071707;28;20036;-64
2023/07/27 12:41:28;;;;;;;2.83;2.60;;;17.30;99.90;;;;;;5055016;28;20090;-65
2023/07/27 12:43:56;;;;;;;2.08;1.98;;;17.60;99.90;;;;;;5070726;28;20146;-64
2023/07/27 12:46:23;;;;;;;0.88;0.85;;;17.60;99.90;;;;;;5071666;28;20091;-64
2023/07/27 12:48:48;;;;;;;1.10;0.60;;;17.20;99.90;;;;;;5071860;28;20076;-64
2023/07/27 12:51:14;;;;;;;0.80;0.73;;;17.20;99.90;;;;;;5076048;28;20072;-62
2023/07/27 12:53:40;;;;;;;0.90;0.80;;;17.70;99.90;;;;;;5074222;28;20127;-63
2023/07/27 12:56:05;;;;;;;1.00;0.90;;;17.70;99.90;;;;;;5075789;28;20060;-66
2023/07/27 12:58:31;;;;;;;1.60;1.50;;;17.50;99.90;;;;;;5073407;28;20044;-64
2023/07/27 13:00:57;;;;;;;3.10;2.90;;;18.00;99.90;;;;;;5058476;28;20143;-63
2023/07/27 13:03:22;;;;;;;3.90;3.70;;;17.70;99.90;;;;;;5091813;28;20490;-63
2023/07/27 13:05:48;;;;;;;4.10;3.75;;;18.20;99.90;;;;;;5073653;28;20110;-63
2023/07/27 13:08:14;;;;;;;4.20;3.42;;;18.10;99.90;;;;;;5077252;28;20044;-65
2023/07/27 13:10:39;;;;;;;2.78;2.58;;;18.50;99.90;;;;;;5074182;28;20043;-64
2023/07/27 13:13:05;;;;;;;3.75;3.55;;;18.20;99.90;;;;;;5074544;28;20501;-61
2023/07/27 13:18:54;;;;;;;7.78;7.13;;;18.60;99.90;;;;;;5087531;28;20134;-63
2023/07/27 13:21:20;;;;;;;9.27;8.50;;;18.60;99.90;;;;;;5058550;28;20909;-64
2023/07/27 13:23:46;;;;;;;10.55;9.75;;;18.70;99.90;;;;;;5074393;28;20053;-63
2023/07/27 13:26:13;;;;;;;10.52;9.73;;;18.70;99.90;;;;;;5074714;28;20079;-64
2023/07/27 13:28:39;;;;;;;11.48;10.68;;;18.90;99.90;;;;;;5060843;28;20043;-64
2023/07/27 13:34:46;;;;;;;8.05;7.50;;;18.70;99.90;;;;;;5075349;28;20134;-64
2023/07/27 13:37:12;;;;;;;9.05;8.35;;;19.00;99.90;;;;;;5057893;28;20090;-64
2023/07/27 13:39:38;;;;;;;8.23;7.63;;;18.60;99.90;;;;;;5075384;28;20036;-64
2023/07/27 13:42:04;;;;;;;8.10;7.50;;;18.90;99.90;;;;;;5074706;28;20043;-64
2023/07/27 13:44:30;;;;;;;6.38;5.85;;;18.60;99.90;;;;;;5074491;28;20489;-63
2023/07/27 13:46:56;;;;;;;6.40;6.00;;;19.10;99.90;;;;;;5073740;28;20039;-63